createdAt,value
2022-11-15T00:00:57.192Z,7.00
2022-11-15T00:03:28.623Z,7.22
2022-11-15T00:05:55.524Z,7.13
2022-11-15T00:08:22.455Z,4.45
2022-11-15T00:10:59.681Z,6.43
2022-11-15T00:13:26.782Z,4.90
2022-11-15T00:15:53.448Z,6.18
2022-11-15T00:18:20.187Z,6.30
2022-11-15T00:20:46.895Z,7.30
2022-11-15T00:23:13.438Z,6.15
2022-11-15T00:25:40.005Z,5.90
2022-11-15T00:28:06.598Z,5.85
2022-11-15T00:30:33.663Z,6.43
2022-11-15T00:33:07.481Z,5.40
2022-11-15T00:35:34.984Z,7.75
2022-11-15T00:38:02.806Z,5.72
2022-11-15T00:40:29.634Z,6.82
2022-11-15T00:42:56.257Z,6.30
2022-11-15T00:45:23.082Z,6.05
2022-11-15T00:47:49.727Z,6.78
2022-11-15T00:50:16.684Z,5.40
2022-11-15T00:52:43.626Z,7.05
2022-11-15T00:55:16.047Z,6.78
2022-11-15T00:57:42.856Z,6.40
2022-11-15T01:00:10.134Z,4.93
2022-11-15T01:02:36.736Z,6.10
2022-11-15T01:05:03.795Z,6.57
2022-11-15T01:07:30.490Z,6.75
2022-11-15T01:09:57.126Z,6.90
2022-11-15T01:12:23.702Z,6.38
2022-11-15T01:14:51.078Z,7.63
2022-11-15T01:17:17.794Z,6.50
2022-11-15T01:19:44.349Z,5.72
2022-11-15T01:22:10.901Z,5.90
2022-11-15T01:24:37.559Z,5.22
2022-11-15T01:27:04.223Z,6.47
2022-11-15T01:29:30.788Z,6.28
2022-11-15T01:31:57.379Z,6.85
2022-11-15T01:34:23.952Z,5.80
2022-11-15T01:36:50.561Z,6.63
2022-11-15T01:39:17.683Z,5.75
2022-11-15T01:41:44.487Z,6.57
2022-11-15T01:44:29.789Z,6.78
2022-11-15T01:46:56.542Z,5.28
2022-11-15T01:49:24.813Z,6.45
2022-11-15T01:51:51.951Z,6.13
2022-11-15T01:54:22.053Z,5.70
2022-11-15T01:57:03.679Z,5.50
2022-11-15T01:59:30.736Z,5.43
2022-11-15T02:01:57.708Z,4.57
2022-11-15T02:04:30.172Z,5.68
2022-11-15T02:06:56.880Z,5.70
2022-11-15T02:09:23.511Z,4.45
2022-11-15T02:11:52.726Z,5.60
2022-11-15T02:14:21.081Z,6.50
2022-11-15T02:17:10.766Z,5.90
2022-11-15T02:19:58.512Z,5.70
2022-11-15T02:22:49.601Z,5.65
2022-11-15T02:25:40.226Z,6.45
2022-11-15T02:28:44.456Z,5.38
2022-11-15T02:31:30.875Z,5.35
2022-11-15T02:34:11.266Z,5.55
2022-11-15T02:36:52.954Z,6.03
2022-11-15T02:39:36.567Z,7.15
2022-11-15T02:42:33.800Z,5.22
2022-11-15T02:45:04.430Z,5.20
2022-11-15T02:47:35.932Z,5.25
2022-11-15T02:50:09.829Z,5.45
2022-11-15T02:52:36.457Z,4.65
2022-11-15T02:55:03.594Z,5.22
2022-11-15T02:58:19.913Z,4.22
2022-11-15T03:01:07.910Z,4.90
2022-11-15T03:03:46.119Z,5.28
2022-11-15T03:06:27.814Z,4.47
2022-11-15T03:09:24.716Z,4.18
2022-11-15T03:12:04.515Z,4.65
2022-11-15T03:14:36.978Z,4.07
2022-11-15T03:17:27.008Z,4.72
2022-11-15T03:20:02.056Z,5.40
2022-11-15T03:22:34.218Z,4.25
2022-11-15T03:25:05.759Z,4.32
2022-11-15T03:27:38.806Z,5.32
2022-11-15T03:30:08.095Z,3.85
2022-11-15T03:32:42.772Z,4.25
2022-11-15T03:35:17.940Z,4.43
2022-11-15T03:37:51.400Z,4.38
2022-11-15T03:40:21.039Z,5.13
2022-11-15T03:42:56.193Z,4.82
2022-11-15T03:45:36.587Z,4.38
2022-11-15T03:48:11.315Z,5.82
2022-11-15T03:50:38.472Z,5.07
2022-11-15T03:53:05.355Z,6.00
2022-11-15T03:55:33.157Z,5.63
2022-11-15T03:58:12.386Z,5.25
2022-11-15T04:00:38.971Z,4.75
2022-11-15T04:03:05.583Z,4.78
2022-11-15T04:05:32.136Z,4.47
2022-11-15T04:07:58.702Z,5.55
2022-11-15T04:10:25.544Z,4.28
2022-11-15T04:12:52.320Z,5.13
2022-11-15T04:15:22.728Z,4.53
2022-11-15T04:17:57.220Z,4.68
2022-11-15T04:20:48.502Z,4.10
2022-11-15T04:23:36.891Z,5.28
2022-11-15T04:26:06.636Z,4.95
2022-11-15T04:28:33.367Z,4.88
2022-11-15T04:31:00.330Z,6.18
2022-11-15T04:33:26.936Z,6.28
2022-11-15T04:36:12.086Z,5.45
2022-11-15T04:38:38.667Z,4.65
2022-11-15T04:41:05.338Z,4.82
2022-11-15T04:43:32.450Z,5.20
2022-11-15T04:45:59.248Z,5.05
2022-11-15T04:48:25.897Z,5.00
2022-11-15T04:50:52.599Z,5.38
2022-11-15T04:53:19.150Z,4.68
2022-11-15T04:55:46.817Z,5.10
2022-11-15T04:58:13.468Z,4.78
2022-11-15T05:00:40.872Z,5.28
2022-11-15T05:03:25.934Z,4.90
2022-11-15T05:05:52.496Z,4.60
2022-11-15T05:08:19.066Z,4.47
2022-11-15T05:10:45.957Z,5.18
2022-11-15T05:13:12.549Z,5.18
2022-11-15T05:15:39.146Z,4.60
2022-11-15T05:18:05.761Z,4.95
2022-11-15T05:20:32.327Z,4.47
2022-11-15T05:22:58.937Z,4.75
2022-11-15T05:25:26.026Z,5.18
2022-11-15T05:27:52.753Z,4.90
2022-11-15T05:30:19.429Z,6.15
2022-11-15T05:32:46.184Z,4.95
2022-11-15T05:35:39.564Z,5.10
2022-11-15T05:38:06.263Z,4.82
2022-11-15T05:40:34.157Z,5.30
2022-11-15T05:43:03.343Z,4.63
2022-11-15T05:45:30.374Z,5.43
2022-11-15T05:48:00.656Z,4.85
2022-11-15T05:50:28.176Z,7.35
2022-11-15T05:52:58.633Z,4.20
2022-11-15T05:55:28.949Z,4.78
2022-11-15T05:57:55.556Z,4.38
2022-11-15T06:00:22.294Z,4.30
2022-11-15T06:02:48.871Z,4.10
2022-11-15T06:05:15.486Z,3.90
2022-11-15T06:07:42.035Z,3.70
2022-11-15T06:10:09.306Z,3.10
2022-11-15T06:12:35.845Z,2.80
2022-11-15T06:15:02.416Z,3.00
2022-11-15T06:17:29.872Z,3.10
2022-11-15T06:19:56.411Z,2.85
2022-11-15T06:22:22.966Z,3.20
2022-11-15T06:24:49.714Z,3.65
2022-11-15T06:27:16.456Z,3.35
2022-11-15T06:29:43.029Z,3.40
2022-11-15T06:32:09.683Z,3.30
2022-11-15T06:34:36.880Z,3.85
2022-11-15T06:37:03.928Z,3.50
2022-11-15T06:39:30.517Z,3.03
2022-11-15T06:41:57.058Z,3.35
2022-11-15T06:44:23.642Z,3.30
2022-11-15T06:46:50.283Z,2.70
2022-11-15T06:49:17.760Z,2.38
2022-11-15T06:51:44.359Z,2.75
2022-11-15T06:54:10.941Z,2.72
2022-11-15T06:56:37.531Z,2.33
2022-11-15T06:59:04.118Z,2.22
2022-11-15T07:01:30.782Z,2.42
2022-11-15T07:03:57.405Z,1.80
2022-11-15T07:06:23.959Z,1.65
2022-11-15T07:08:50.484Z,2.08
2022-11-15T07:11:17.081Z,1.85
2022-11-15T07:13:43.650Z,1.70
2022-11-15T07:16:11.415Z,1.60
2022-11-15T07:18:39.859Z,1.65
2022-11-15T07:21:11.129Z,1.45
2022-11-15T07:23:39.020Z,1.88
2022-11-15T07:26:06.521Z,1.25
2022-11-15T07:28:33.426Z,1.38
2022-11-15T07:31:04.005Z,1.90
2022-11-15T07:33:30.980Z,1.27
2022-11-15T07:36:02.440Z,1.27
2022-11-15T07:38:29.968Z,1.10
2022-11-15T07:41:01.497Z,1.30
2022-11-15T07:43:29.142Z,1.60
2022-11-15T07:45:59.307Z,1.80
2022-11-15T07:48:35.634Z,1.67
2022-11-15T07:51:15.885Z,1.23
2022-11-15T07:53:44.182Z,1.92
2022-11-15T07:56:11.256Z,1.10
2022-11-15T07:58:37.846Z,1.48
2022-11-15T08:01:08.974Z,1.50
2022-11-15T08:03:36.218Z,1.52
2022-11-15T08:06:02.914Z,1.42
2022-11-15T08:08:29.660Z,1.77
2022-11-15T08:10:58.777Z,1.60
2022-11-15T08:13:25.442Z,1.48
2022-11-15T08:15:57.375Z,1.40
2022-11-15T08:18:24.394Z,1.65
2022-11-15T08:20:50.987Z,1.33
2022-11-15T08:23:17.575Z,1.40
2022-11-15T08:25:44.475Z,1.30
2022-11-15T08:28:11.639Z,1.45
2022-11-15T08:30:42.447Z,1.60
2022-11-15T08:33:12.924Z,1.50
2022-11-15T08:35:40.737Z,1.35
2022-11-15T08:38:07.480Z,1.55
2022-11-15T08:40:34.065Z,1.80
2022-11-15T08:43:03.273Z,1.63
2022-11-15T08:45:30.838Z,1.70
2022-11-15T08:47:57.724Z,2.38
2022-11-15T08:50:24.377Z,1.58
2022-11-15T08:52:50.958Z,1.15
2022-11-15T08:55:17.860Z,1.13
2022-11-15T08:57:45.107Z,1.42
2022-11-15T09:00:13.242Z,1.30
2022-11-15T09:02:40.900Z,1.55
2022-11-15T09:05:08.082Z,1.90
2022-11-15T09:07:34.924Z,1.90
2022-11-15T09:10:01.735Z,1.52
2022-11-15T09:12:28.619Z,1.70
2022-11-15T09:14:55.582Z,1.50
2022-11-15T09:17:24.854Z,1.70
2022-11-15T09:19:51.890Z,1.30
2022-11-15T09:22:18.789Z,1.33
2022-11-15T09:24:45.506Z,1.98
2022-11-15T09:27:12.641Z,1.60
2022-11-15T09:29:39.221Z,1.65
2022-11-15T09:32:06.102Z,1.10
2022-11-15T09:34:32.839Z,0.98
2022-11-15T09:36:59.414Z,1.20
2022-11-15T09:39:26.046Z,1.50
2022-11-15T09:42:33.900Z,1.23
2022-11-15T09:45:21.732Z,1.10
2022-11-15T09:48:19.623Z,1.15
2022-11-15T09:50:52.504Z,0.90
2022-11-15T09:54:09.152Z,1.52
2022-11-15T09:56:23.589Z,1.50
2022-11-15T09:59:08.712Z,1.30
2022-11-15T10:01:57.737Z,1.75
2022-11-15T10:04:26.163Z,1.48
2022-11-15T10:07:04.213Z,1.20
2022-11-15T10:09:40.849Z,1.90
2022-11-15T10:12:09.459Z,1.65
2022-11-15T10:14:36.708Z,1.85
2022-11-15T10:17:21.747Z,1.98
2022-11-15T10:20:21.725Z,1.52
2022-11-15T10:22:57.394Z,1.63
2022-11-15T10:25:25.750Z,1.77
2022-11-15T10:28:28.711Z,1.88
2022-11-15T10:30:59.830Z,1.73
2022-11-15T10:33:36.880Z,2.30
2022-11-15T10:36:09.759Z,1.90
2022-11-15T10:38:51.565Z,1.70
2022-11-15T10:41:22.607Z,1.75
2022-11-15T10:44:07.606Z,1.60
2022-11-15T10:46:51.391Z,1.65
2022-11-15T10:49:25.119Z,1.83
2022-11-15T10:51:59.894Z,1.90
2022-11-15T10:54:40.577Z,1.88
2022-11-15T10:57:18.292Z,1.65
2022-11-15T11:00:07.232Z,1.58
2022-11-15T11:02:40.269Z,1.50
2022-11-15T11:05:41.648Z,1.52
2022-11-15T11:08:12.462Z,1.45
2022-11-15T11:11:01.318Z,1.45
2022-11-15T11:13:31.901Z,1.55
2022-11-15T11:16:17.567Z,1.50
2022-11-15T11:19:07.251Z,1.52
2022-11-15T11:21:57.186Z,1.33
2022-11-15T11:24:34.168Z,1.70
2022-11-15T11:27:15.810Z,2.15
2022-11-15T11:30:00.572Z,1.20
2022-11-15T11:32:55.028Z,1.65
2022-11-15T11:35:40.309Z,1.38
2022-11-15T11:38:31.510Z,1.33
2022-11-15T11:41:13.211Z,1.23
2022-11-15T11:43:39.797Z,1.40
2022-11-15T11:46:18.047Z,1.20
2022-11-15T11:48:48.345Z,1.50
2022-11-15T11:51:25.477Z,1.00
2022-11-15T11:54:25.874Z,1.45
2022-11-15T11:56:55.248Z,1.30
2022-11-15T11:59:44.318Z,1.20
2022-11-15T12:02:20.857Z,1.60
2022-11-15T12:04:54.017Z,1.50
2022-11-15T12:07:28.691Z,1.92
2022-11-15T12:10:09.061Z,1.23
2022-11-15T12:12:54.593Z,1.48
2022-11-15T12:15:28.371Z,1.33
2022-11-15T12:17:57.839Z,1.23
2022-11-15T12:20:33.872Z,1.48
2022-11-15T12:23:04.871Z,1.08
2022-11-15T12:25:53.096Z,1.65
2022-11-15T12:28:52.842Z,1.17
2022-11-15T12:31:52.793Z,1.35
2022-11-15T12:34:22.171Z,1.77
2022-11-15T12:36:50.909Z,1.70
2022-11-15T12:39:18.722Z,1.38
2022-11-15T12:42:06.780Z,1.63
2022-11-15T12:44:33.777Z,1.60
2022-11-15T12:47:03.421Z,1.30
2022-11-15T12:49:30.811Z,1.35
2022-11-15T12:52:00.159Z,1.70
2022-11-15T12:54:28.151Z,1.10
2022-11-15T12:57:04.090Z,1.50
2022-11-15T12:59:54.036Z,1.67
2022-11-15T13:02:25.520Z,1.20
2022-11-15T13:04:54.322Z,1.38
2022-11-15T13:07:36.117Z,1.60
2022-11-15T13:10:33.183Z,1.40
2022-11-15T13:13:04.484Z,1.20
2022-11-15T13:15:42.299Z,1.70
2022-11-15T13:18:39.904Z,1.45
2022-11-15T13:21:40.046Z,1.45
2022-11-15T13:24:13.410Z,1.40
2022-11-15T13:26:41.104Z,1.35
2022-11-15T13:29:19.762Z,1.40
2022-11-15T13:31:47.273Z,1.77
2022-11-15T13:34:50.583Z,1.42
2022-11-15T13:37:35.302Z,1.42
2022-11-15T13:40:21.175Z,1.30
2022-11-15T13:42:47.732Z,1.58
2022-11-15T13:45:17.908Z,1.63
2022-11-15T13:47:44.632Z,1.30
2022-11-15T13:50:13.552Z,1.40
2022-11-15T13:52:44.138Z,1.38
2022-11-15T13:55:15.486Z,1.20
2022-11-15T13:57:56.424Z,1.33
2022-11-15T14:00:27.995Z,1.20
2022-11-15T14:02:56.162Z,1.70
2022-11-15T14:05:25.437Z,1.73
2022-11-15T14:08:01.468Z,1.58
2022-11-15T14:10:38.346Z,1.35
2022-11-15T14:13:11.198Z,1.20
2022-11-15T14:15:39.366Z,1.52
2022-11-15T14:18:07.057Z,1.40
2022-11-15T14:20:39.929Z,1.40
2022-11-15T14:23:36.002Z,1.58
2022-11-15T14:26:05.239Z,1.80
2022-11-15T14:28:38.943Z,1.60
2022-11-15T14:31:12.727Z,1.27
2022-11-15T14:33:40.162Z,1.58
2022-11-15T14:36:16.713Z,1.85
2022-11-15T14:38:46.678Z,1.48
2022-11-15T14:41:25.459Z,1.15
2022-11-15T14:43:52.875Z,1.60
2022-11-15T14:46:19.900Z,2.05
2022-11-15T14:48:46.804Z,1.42
2022-11-15T14:51:19.657Z,1.58
2022-11-15T14:53:47.582Z,1.40
2022-11-15T14:56:14.533Z,1.70
2022-11-15T14:58:41.198Z,1.58
2022-11-15T15:01:24.188Z,1.40
2022-11-15T15:03:52.963Z,1.40
2022-11-15T15:06:19.860Z,1.35
2022-11-15T15:08:48.943Z,1.20
2022-11-15T15:11:30.715Z,1.30
2022-11-15T15:13:59.205Z,1.30
2022-11-15T15:16:25.930Z,1.60
2022-11-15T15:18:52.885Z,1.40
2022-11-15T15:21:25.110Z,1.58
2022-11-15T15:23:52.321Z,1.63
2022-11-15T15:26:18.885Z,1.38
2022-11-15T15:28:45.511Z,1.80
2022-11-15T15:31:12.223Z,1.45
2022-11-15T15:33:39.024Z,1.60
2022-11-15T15:36:06.014Z,1.40
2022-11-15T15:38:32.842Z,1.70
2022-11-15T15:41:02.783Z,1.92
2022-11-15T15:43:29.352Z,1.30
2022-11-15T15:45:56.002Z,1.58
2022-11-15T15:48:22.641Z,1.73
2022-11-15T15:50:50.138Z,1.50
2022-11-15T15:53:18.160Z,1.40
2022-11-15T15:55:44.796Z,1.48
2022-11-15T15:58:11.393Z,2.20
2022-11-15T16:00:38.158Z,1.58
2022-11-15T16:03:04.902Z,1.40
2022-11-15T16:05:31.506Z,1.42
2022-11-15T16:07:58.216Z,1.92
2022-11-15T16:10:30.696Z,1.65
2022-11-15T16:12:58.362Z,1.50
2022-11-15T16:15:27.555Z,1.45
2022-11-15T16:17:56.631Z,1.70
2022-11-15T16:20:45.691Z,1.70
2022-11-15T16:23:17.940Z,1.27
2022-11-15T16:25:52.065Z,2.10
2022-11-15T16:28:23.355Z,2.05
2022-11-15T16:30:59.591Z,1.45
2022-11-15T16:33:26.159Z,2.20
2022-11-15T16:35:52.726Z,1.30
2022-11-15T16:38:19.454Z,1.60
2022-11-15T16:40:46.123Z,2.13
2022-11-15T16:43:12.714Z,1.33
2022-11-15T16:45:39.541Z,2.08
2022-11-15T16:48:06.333Z,1.58
2022-11-15T16:50:41.150Z,1.52
2022-11-15T16:53:08.064Z,2.38
2022-11-15T16:55:34.827Z,1.80
2022-11-15T16:58:02.306Z,1.80
2022-11-15T17:00:29.158Z,2.13
2022-11-15T17:02:56.118Z,2.10
2022-11-15T17:05:24.546Z,1.83
2022-11-15T17:07:54.107Z,2.63
2022-11-15T17:10:22.730Z,1.75
2022-11-15T17:12:50.689Z,2.72
2022-11-15T17:15:17.508Z,1.88
2022-11-15T17:17:44.652Z,1.58
2022-11-15T17:20:17.090Z,1.40
2022-11-15T17:22:44.174Z,2.17
2022-11-15T17:25:11.012Z,1.42
2022-11-15T17:27:37.599Z,2.20
2022-11-15T17:30:05.225Z,1.73
2022-11-15T17:32:31.801Z,2.00
2022-11-15T17:34:58.342Z,1.73
2022-11-15T17:37:24.898Z,2.63
2022-11-15T17:39:51.528Z,1.63
2022-11-15T17:42:18.105Z,2.63
2022-11-15T17:44:44.719Z,2.03
2022-11-15T17:47:11.281Z,1.92
2022-11-15T17:49:40.615Z,1.98
2022-11-15T17:52:07.737Z,1.95
2022-11-15T17:54:34.454Z,2.67
2022-11-15T17:57:01.017Z,2.30
2022-11-15T17:59:27.579Z,1.92
2022-11-15T18:01:54.257Z,1.90
2022-11-15T18:04:20.998Z,1.50
2022-11-15T18:06:47.802Z,1.67
2022-11-15T18:09:14.440Z,1.17
2022-11-15T18:11:43.067Z,2.42
2022-11-15T18:14:14.404Z,2.30
2022-11-15T18:16:41.697Z,2.17
2022-11-15T18:19:13.002Z,1.75
2022-11-15T18:21:56.579Z,1.67
2022-11-15T18:24:35.228Z,2.10
2022-11-15T18:27:03.273Z,1.20
2022-11-15T18:29:29.952Z,2.88
2022-11-15T18:31:57.402Z,2.55
2022-11-15T18:34:25.600Z,2.83
2022-11-15T18:36:53.437Z,1.58
2022-11-15T18:39:20.354Z,3.17
2022-11-15T18:41:47.293Z,1.80
2022-11-15T18:44:15.237Z,1.98
2022-11-15T18:46:42.513Z,1.95
2022-11-15T18:49:09.934Z,1.63
2022-11-15T18:51:41.634Z,1.42
2022-11-15T18:54:10.818Z,2.55
2022-11-15T18:56:38.020Z,3.08
2022-11-15T18:59:05.257Z,1.85
2022-11-15T19:01:38.309Z,3.00
2022-11-15T19:04:10.594Z,1.75
2022-11-15T19:06:45.099Z,2.83
2022-11-15T19:09:15.208Z,1.73
2022-11-15T19:11:42.682Z,2.70
2022-11-15T19:14:11.405Z,4.70
2022-11-15T19:16:44.674Z,2.30
2022-11-15T19:19:17.252Z,3.20
2022-11-15T19:21:44.454Z,1.63
2022-11-15T19:24:11.307Z,2.92
2022-11-15T19:26:38.314Z,2.70
2022-11-15T19:29:06.894Z,3.97
2022-11-15T19:31:33.800Z,1.80
2022-11-15T19:34:02.997Z,2.42
2022-11-15T19:36:34.301Z,2.20
2022-11-15T19:39:09.520Z,1.73
2022-11-15T19:41:38.386Z,3.10
2022-11-15T19:44:06.182Z,3.15
2022-11-15T19:46:32.930Z,2.53
2022-11-15T19:48:59.656Z,2.25
2022-11-15T19:51:29.201Z,3.20
2022-11-15T19:53:57.918Z,1.35
2022-11-15T19:56:24.793Z,1.90
2022-11-15T19:58:56.343Z,2.13
2022-11-15T20:01:28.180Z,2.63
2022-11-15T20:03:57.147Z,1.80
2022-11-15T20:06:27.075Z,1.15
2022-11-15T20:08:53.824Z,1.98
2022-11-15T20:11:20.663Z,2.40
2022-11-15T20:13:47.268Z,1.10
2022-11-15T20:16:19.704Z,1.60
2022-11-15T20:18:47.425Z,1.80
2022-11-15T20:21:14.226Z,1.00
2022-11-15T20:23:41.407Z,2.22
2022-11-15T20:26:09.457Z,1.98
2022-11-15T20:28:37.531Z,1.20
2022-11-15T20:31:05.130Z,2.10
2022-11-15T20:33:31.975Z,2.05
2022-11-15T20:36:02.329Z,1.50
2022-11-15T20:38:28.879Z,2.10
2022-11-15T20:40:59.997Z,2.45
2022-11-15T20:43:27.268Z,2.97
2022-11-15T20:45:54.046Z,1.67
2022-11-15T20:48:20.868Z,1.45
2022-11-15T20:50:47.858Z,2.83
2022-11-15T20:53:17.996Z,1.42
2022-11-15T20:55:50.864Z,1.85
2022-11-15T20:58:18.057Z,1.23
2022-11-15T21:00:45.979Z,1.08
2022-11-15T21:03:14.331Z,2.13
2022-11-15T21:05:42.936Z,1.88
2022-11-15T21:08:10.722Z,2.30
2022-11-15T21:10:56.435Z,2.60
2022-11-15T21:13:23.043Z,2.00
2022-11-15T21:15:49.846Z,2.20
2022-11-15T21:18:16.536Z,1.45
2022-11-15T21:20:43.253Z,1.23
2022-11-15T21:23:10.121Z,2.40
2022-11-15T21:25:36.759Z,2.88
2022-11-15T21:28:03.470Z,3.00
2022-11-15T21:30:30.334Z,4.07
2022-11-15T21:32:57.026Z,1.50
2022-11-15T21:35:23.763Z,2.85
2022-11-15T21:37:56.182Z,2.33
2022-11-15T21:40:24.259Z,1.70
2022-11-15T21:42:50.907Z,2.35
2022-11-15T21:45:17.531Z,3.05
2022-11-15T21:47:46.491Z,1.67
2022-11-15T21:50:13.764Z,2.45
2022-11-15T21:52:40.684Z,1.92
2022-11-15T21:55:08.371Z,3.05
2022-11-15T21:57:35.004Z,1.38
2022-11-15T22:00:20.676Z,2.55
2022-11-15T22:02:47.278Z,3.42
2022-11-15T22:05:13.842Z,1.40
2022-11-15T22:07:40.457Z,1.50
2022-11-15T22:10:07.332Z,2.60
2022-11-15T22:12:33.880Z,4.20
2022-11-15T22:15:00.473Z,1.20
2022-11-15T22:17:47.055Z,2.03
2022-11-15T22:20:37.696Z,1.33
2022-11-15T22:23:02.067Z,2.92
2022-11-15T22:25:28.915Z,2.42
2022-11-15T22:27:55.491Z,2.70
2022-11-15T22:30:22.683Z,2.10
2022-11-15T22:32:49.258Z,1.95
2022-11-15T22:35:16.473Z,2.08
2022-11-15T22:37:43.112Z,1.45
2022-11-15T22:40:10.258Z,3.95
2022-11-15T22:42:38.936Z,2.47
2022-11-15T22:45:06.085Z,2.85
2022-11-15T22:47:32.641Z,1.92
2022-11-15T22:49:59.269Z,3.80
2022-11-15T22:52:25.952Z,1.63
2022-11-15T22:54:52.580Z,1.50
2022-11-15T22:57:19.137Z,2.33
2022-11-15T22:59:45.877Z,1.60
2022-11-15T23:02:12.461Z,1.90
2022-11-15T23:04:39.111Z,2.08
2022-11-15T23:07:05.822Z,1.88
2022-11-15T23:09:32.433Z,1.73
2022-11-15T23:12:17.914Z,2.20
2022-11-15T23:14:44.573Z,1.95
2022-11-15T23:17:11.134Z,2.78
2022-11-15T23:19:37.758Z,1.98
2022-11-15T23:22:22.942Z,2.30
2022-11-15T23:24:49.631Z,2.50
2022-11-15T23:27:19.821Z,2.53
2022-11-15T23:30:19.390Z,2.20
2022-11-15T23:33:04.755Z,1.60
2022-11-15T23:35:31.432Z,2.70
2022-11-15T23:37:57.986Z,1.48
2022-11-15T23:40:24.574Z,3.88
2022-11-15T23:42:51.172Z,3.10
2022-11-15T23:45:18.354Z,3.00
2022-11-15T23:47:45.121Z,3.20
2022-11-15T23:50:11.721Z,2.30
2022-11-15T23:52:38.292Z,4.10
2022-11-15T23:55:05.814Z,4.55
2022-11-15T23:57:32.415Z,3.92
